createdAt,value
2023-05-05T00:01:32.505Z,7.32
2023-05-05T00:06:37.737Z,7.10
2023-05-05T00:11:41.602Z,8.53
2023-05-05T00:16:45.584Z,7.88
2023-05-05T00:21:51.086Z,7.20
2023-05-05T00:26:54.972Z,7.40
2023-05-05T00:31:59.035Z,8.40
2023-05-05T00:37:04.630Z,7.90
2023-05-05T00:42:08.566Z,8.45
2023-05-05T00:47:13.941Z,8.95
2023-05-05T00:52:19.298Z,9.00
2023-05-05T00:57:23.554Z,7.53
2023-05-05T01:02:27.774Z,8.15
2023-05-05T01:07:42.455Z,7.50
2023-05-05T01:12:54.771Z,8.65
2023-05-05T01:18:04.049Z,8.75
2023-05-05T01:23:13.560Z,8.93
2023-05-05T01:28:29.147Z,8.02
2023-05-05T01:33:38.047Z,7.22
2023-05-05T01:38:46.264Z,8.00
2023-05-05T01:43:51.702Z,9.88
2023-05-05T01:54:05.665Z,8.25
2023-05-05T01:59:10.885Z,9.57
2023-05-05T02:04:18.478Z,9.67
2023-05-05T02:09:24.951Z,10.18
2023-05-05T02:14:31.612Z,9.07
2023-05-05T02:19:41.157Z,8.50
2023-05-05T02:24:45.873Z,8.82
2023-05-05T02:29:54.041Z,9.52
2023-05-05T02:35:02.820Z,8.32
2023-05-05T02:40:10.236Z,9.35
2023-05-05T02:45:19.530Z,9.15
2023-05-05T02:50:27.041Z,8.60
2023-05-05T02:55:45.302Z,9.20
2023-05-05T03:00:56.884Z,9.38
2023-05-05T03:06:12.472Z,8.90
2023-05-05T03:11:25.117Z,11.25
2023-05-05T03:16:32.341Z,9.90
2023-05-05T03:21:38.653Z,11.05
2023-05-05T03:26:44.321Z,10.80
2023-05-05T03:31:48.736Z,10.77
2023-05-05T03:36:54.087Z,10.48
2023-05-05T03:41:58.103Z,9.27
2023-05-05T03:47:06.852Z,9.35
2023-05-05T03:52:15.153Z,9.80
2023-05-05T03:57:20.401Z,16.23
2023-05-05T04:02:24.449Z,10.25
2023-05-05T04:07:29.897Z,11.25
2023-05-05T04:12:33.999Z,10.65
2023-05-05T04:17:38.147Z,10.98
2023-05-05T04:22:43.742Z,11.23
2023-05-05T04:27:47.718Z,11.63
2023-05-05T04:32:51.872Z,11.10
2023-05-05T04:37:57.250Z,11.27
2023-05-05T04:43:01.468Z,9.57
2023-05-05T04:48:06.974Z,9.87
2023-05-05T04:53:12.382Z,11.32
2023-05-05T04:58:16.843Z,10.57
2023-05-05T05:03:22.213Z,10.60
2023-05-05T05:08:27.597Z,11.30
2023-05-05T05:13:31.625Z,8.55
2023-05-05T05:18:35.510Z,9.25
2023-05-05T05:23:41.131Z,9.60
2023-05-05T05:28:45.397Z,8.25
2023-05-05T05:33:49.530Z,8.77
2023-05-05T05:38:54.984Z,9.30
2023-05-05T05:43:59.080Z,9.27
2023-05-05T05:49:03.878Z,7.82
2023-05-05T05:54:09.548Z,7.20
2023-05-05T05:59:13.711Z,6.57
2023-05-05T06:04:18.886Z,6.53
2023-05-05T06:09:24.299Z,7.03
2023-05-05T06:14:30.740Z,6.43
2023-05-05T06:19:36.985Z,7.47
2023-05-05T06:29:46.466Z,8.23
2023-05-05T06:34:50.408Z,6.45
2023-05-05T06:39:56.835Z,8.48
2023-05-05T06:45:00.896Z,7.18
2023-05-05T06:50:05.554Z,6.32
2023-05-05T06:55:11.559Z,7.60
2023-05-05T07:00:17.466Z,6.95
2023-05-05T07:05:21.931Z,5.80
2023-05-05T07:10:28.616Z,6.82
2023-05-05T07:15:32.654Z,6.00
2023-05-05T07:20:36.632Z,6.70
2023-05-05T07:25:42.762Z,5.82
2023-05-05T07:30:46.813Z,13.68
2023-05-05T07:35:50.969Z,6.00
2023-05-05T07:40:56.303Z,7.63
2023-05-05T07:46:02.679Z,6.97
2023-05-05T07:51:06.648Z,5.90
2023-05-05T07:56:12.128Z,4.80
2023-05-05T08:01:16.218Z,6.53
2023-05-05T08:06:22.215Z,8.68
2023-05-05T08:11:29.558Z,6.05
2023-05-05T08:16:33.825Z,5.88
2023-05-05T08:21:37.896Z,6.75
2023-05-05T08:26:43.257Z,6.50
2023-05-05T08:31:47.246Z,5.95
2023-05-05T08:36:51.335Z,5.55
2023-05-05T08:41:56.701Z,5.63
2023-05-05T08:52:10.303Z,5.80
2023-05-05T08:57:20.917Z,4.45
2023-05-05T09:02:28.633Z,5.07
2023-05-05T09:07:33.562Z,11.45
2023-05-05T09:12:41.406Z,12.40
2023-05-05T09:17:46.265Z,5.65
2023-05-05T09:22:51.713Z,5.82
2023-05-05T09:27:57.127Z,5.15
2023-05-05T09:33:02.310Z,4.38
2023-05-05T09:38:12.970Z,4.20
2023-05-05T09:43:19.596Z,4.82
2023-05-05T09:48:27.554Z,4.72
2023-05-05T09:53:40.997Z,5.43
2023-05-05T09:58:46.490Z,4.80
2023-05-05T10:03:52.569Z,4.63
2023-05-05T10:09:02.343Z,5.18
2023-05-05T10:14:09.826Z,4.80
2023-05-05T10:19:16.445Z,4.50
2023-05-05T10:24:29.412Z,4.05
2023-05-05T10:29:41.393Z,3.88
2023-05-05T10:34:52.206Z,3.58
2023-05-05T10:39:57.570Z,3.20
2023-05-05T10:45:03.302Z,3.85
2023-05-05T10:50:15.123Z,8.73
2023-05-05T10:55:22.577Z,4.72
2023-05-05T11:00:55.689Z,3.42
2023-05-05T11:06:15.801Z,3.42
2023-05-05T11:12:00.329Z,3.72
2023-05-05T11:17:05.849Z,3.83
2023-05-05T11:27:13.957Z,3.22
2023-05-05T11:32:20.021Z,3.42
2023-05-05T11:37:25.262Z,3.53
2023-05-05T11:42:30.408Z,3.42
2023-05-05T11:47:36.304Z,3.10
2023-05-05T11:52:40.214Z,3.65
2023-05-05T11:57:44.054Z,3.13
2023-05-05T12:02:58.213Z,3.60
2023-05-05T12:08:02.805Z,4.53
2023-05-05T12:13:19.155Z,3.75
2023-05-05T12:18:24.653Z,3.92
2023-05-05T12:23:30.186Z,3.63
2023-05-05T12:28:46.451Z,3.47
2023-05-05T12:33:53.812Z,3.08
2023-05-05T12:38:57.851Z,2.90
2023-05-05T12:44:03.244Z,2.90
2023-05-05T12:49:09.868Z,3.20
2023-05-05T12:54:13.883Z,5.20
2023-05-05T12:59:30.789Z,2.97
2023-05-05T13:04:49.542Z,4.03
2023-05-05T13:10:07.119Z,7.32
2023-05-05T13:15:12.423Z,3.50
2023-05-05T13:20:17.992Z,2.45
2023-05-05T13:25:21.983Z,9.75
2023-05-05T13:30:25.932Z,2.37
2023-05-05T13:35:31.401Z,2.60
2023-05-05T13:40:35.481Z,2.40
2023-05-05T13:45:41.241Z,2.40
2023-05-05T13:50:47.234Z,2.30
2023-05-05T13:55:51.140Z,2.72
2023-05-05T14:00:56.349Z,2.17
2023-05-05T14:11:05.577Z,2.30
2023-05-05T14:16:09.723Z,2.60
2023-05-05T14:21:15.113Z,3.03
2023-05-05T14:26:19.092Z,4.50
2023-05-05T14:31:23.173Z,6.33
2023-05-05T14:36:28.649Z,3.00
2023-05-05T14:41:32.746Z,4.07
2023-05-05T14:46:36.829Z,2.45
2023-05-05T14:51:42.822Z,2.20
2023-05-05T14:56:46.692Z,2.53
2023-05-05T15:01:50.596Z,2.88
2023-05-05T15:06:56.484Z,3.10
2023-05-05T15:12:00.415Z,2.95
2023-05-05T15:17:04.343Z,2.05
2023-05-05T15:22:09.679Z,2.22
2023-05-05T15:27:13.690Z,2.45
2023-05-05T15:32:18.065Z,2.23
2023-05-05T15:37:23.632Z,2.50
2023-05-05T15:42:27.912Z,2.20
2023-05-05T15:47:31.942Z,2.75
2023-05-05T15:52:37.301Z,2.33
2023-05-05T15:57:41.458Z,2.25
2023-05-05T16:02:45.681Z,2.60
2023-05-05T16:07:52.546Z,2.53
2023-05-05T16:12:56.976Z,3.03
2023-05-05T16:18:00.929Z,2.73
2023-05-05T16:23:06.874Z,2.85
2023-05-05T16:28:10.797Z,2.80
2023-05-05T16:33:14.691Z,2.75
2023-05-05T16:38:19.985Z,2.50
2023-05-05T16:43:23.848Z,2.78
2023-05-05T16:48:27.721Z,2.35
2023-05-05T16:53:33.044Z,2.67
2023-05-05T16:58:36.904Z,3.03
2023-05-05T17:03:40.993Z,2.63
2023-05-05T17:08:46.388Z,2.83
2023-05-05T17:13:50.277Z,2.60
2023-05-05T17:19:08.823Z,3.13
2023-05-05T17:24:14.132Z,3.10
2023-05-05T17:29:19.890Z,2.63
2023-05-05T17:34:23.841Z,3.05
2023-05-05T17:39:29.110Z,3.50
2023-05-05T17:44:33.132Z,3.53
2023-05-05T17:49:37.068Z,3.50
2023-05-05T17:54:42.758Z,4.45
2023-05-05T18:04:51.290Z,3.03
2023-05-05T18:09:56.974Z,4.57
2023-05-05T18:15:01.627Z,4.63
2023-05-05T18:20:07.111Z,5.53
2023-05-05T18:25:12.908Z,5.07
2023-05-05T18:30:17.537Z,5.50
2023-05-05T18:35:21.462Z,4.88
2023-05-05T18:40:26.743Z,5.18
2023-05-05T18:45:30.783Z,4.43
2023-05-05T18:50:34.763Z,4.75
2023-05-05T18:55:40.116Z,6.53
2023-05-05T19:00:44.048Z,6.05
2023-05-05T19:05:47.933Z,6.40
2023-05-05T19:10:53.396Z,6.28
2023-05-05T19:15:58.050Z,5.25
2023-05-05T19:21:01.981Z,5.13
2023-05-05T19:26:07.317Z,5.32
2023-05-05T19:31:11.286Z,6.30
2023-05-05T19:36:15.694Z,5.63
2023-05-05T19:41:21.195Z,6.50
2023-05-05T19:46:26.518Z,6.45
2023-05-05T19:51:32.231Z,7.18
2023-05-05T19:56:37.672Z,8.18
2023-05-05T20:01:41.599Z,8.20
2023-05-05T20:06:48.206Z,8.80
2023-05-05T20:11:53.514Z,9.73
2023-05-05T20:16:58.660Z,9.05
2023-05-05T20:22:03.169Z,10.10
2023-05-05T20:27:08.458Z,9.45
2023-05-05T20:32:12.669Z,8.73
2023-05-05T20:37:16.675Z,9.35
2023-05-05T20:42:23.144Z,8.88
2023-05-05T20:47:27.092Z,8.70
2023-05-05T20:52:32.069Z,9.23
2023-05-05T20:57:37.924Z,8.60
2023-05-05T21:02:42.331Z,9.25
2023-05-05T21:07:46.736Z,9.25
2023-05-05T21:13:07.642Z,7.88
2023-05-05T21:18:11.701Z,8.68
2023-05-05T21:23:15.600Z,7.93
2023-05-05T21:28:20.996Z,8.18
2023-05-05T21:33:25.005Z,8.13
2023-05-05T21:38:28.915Z,8.57
2023-05-05T21:43:34.162Z,8.07
2023-05-05T21:48:39.075Z,8.57
2023-05-05T21:53:44.460Z,8.00
2023-05-05T21:58:52.774Z,7.78
2023-05-05T22:03:56.757Z,7.60
2023-05-05T22:09:01.035Z,7.00
2023-05-05T22:14:06.280Z,6.55
2023-05-05T22:19:10.460Z,6.28
2023-05-05T22:24:14.458Z,6.03
2023-05-05T22:29:19.692Z,6.25
2023-05-05T22:34:23.962Z,6.30
2023-05-05T22:39:27.966Z,5.57
2023-05-05T22:44:33.236Z,5.20
2023-05-05T22:49:37.166Z,5.27
2023-05-05T22:54:41.399Z,5.13
2023-05-05T22:59:46.715Z,5.80
2023-05-05T23:04:51.253Z,4.90
2023-05-05T23:09:55.340Z,5.47
2023-05-05T23:15:00.676Z,5.57
2023-05-05T23:20:05.871Z,4.75
2023-05-05T23:25:10.711Z,4.37
2023-05-05T23:30:16.787Z,4.97
2023-05-05T23:35:20.841Z,4.93
2023-05-05T23:40:25.031Z,5.38
2023-05-05T23:45:30.443Z,5.38
2023-05-05T23:50:34.304Z,4.83
2023-05-05T23:55:38.165Z,4.80
